createdAt,value
2023-01-23T00:00:47.514Z,6.30
2023-01-23T00:03:14.225Z,5.47
2023-01-23T00:05:40.872Z,5.85
2023-01-23T00:08:07.851Z,5.22
2023-01-23T00:10:34.655Z,6.50
2023-01-23T00:13:01.342Z,6.00
2023-01-23T00:15:28.138Z,5.60
2023-01-23T00:17:54.886Z,4.57
2023-01-23T00:20:21.784Z,5.43
2023-01-23T00:22:48.647Z,5.85
2023-01-23T00:25:15.369Z,5.50
2023-01-23T00:27:42.046Z,5.13
2023-01-23T00:30:09.517Z,6.20
2023-01-23T00:32:36.147Z,5.32
2023-01-23T00:35:02.918Z,5.18
2023-01-23T00:37:29.611Z,5.88
2023-01-23T00:39:56.243Z,7.13
2023-01-23T00:42:22.967Z,5.35
2023-01-23T00:44:49.622Z,5.47
2023-01-23T00:47:16.285Z,5.75
2023-01-23T00:49:42.980Z,4.88
2023-01-23T00:52:09.631Z,7.13
2023-01-23T00:54:38.177Z,6.68
2023-01-23T00:57:05.301Z,5.57
2023-01-23T00:59:31.974Z,4.88
2023-01-23T01:01:58.730Z,4.47
2023-01-23T01:04:25.463Z,5.80
2023-01-23T01:06:52.106Z,5.00
2023-01-23T01:09:18.792Z,5.43
2023-01-23T01:11:45.534Z,5.85
2023-01-23T01:14:12.349Z,6.60
2023-01-23T01:16:44.984Z,7.78
2023-01-23T01:19:13.561Z,6.68
2023-01-23T01:21:41.026Z,6.75
2023-01-23T01:24:08.339Z,6.18
2023-01-23T01:26:35.701Z,6.50
2023-01-23T01:29:03.257Z,5.15
2023-01-23T01:31:30.161Z,5.82
2023-01-23T01:33:56.881Z,5.90
2023-01-23T01:36:24.454Z,6.80
2023-01-23T01:38:51.427Z,7.85
2023-01-23T01:41:18.368Z,4.95
2023-01-23T01:43:45.616Z,7.25
2023-01-23T01:46:24.509Z,7.00
2023-01-23T01:48:59.510Z,6.65
2023-01-23T01:51:33.818Z,7.25
2023-01-23T01:54:34.122Z,4.82
2023-01-23T01:57:26.895Z,6.22
2023-01-23T02:00:02.237Z,5.68
2023-01-23T02:02:37.013Z,5.63
2023-01-23T02:05:09.499Z,5.80
2023-01-23T02:07:58.954Z,3.55
2023-01-23T02:10:25.800Z,4.05
2023-01-23T02:12:53.267Z,5.68
2023-01-23T02:15:22.238Z,4.97
2023-01-23T02:17:53.154Z,5.93
2023-01-23T02:20:24.094Z,6.82
2023-01-23T02:23:32.911Z,6.28
2023-01-23T02:26:11.058Z,7.82
2023-01-23T02:28:49.834Z,5.63
2023-01-23T02:31:16.694Z,5.93
2023-01-23T02:33:47.109Z,5.63
2023-01-23T02:36:14.388Z,4.40
2023-01-23T02:38:54.707Z,5.72
2023-01-23T02:41:30.417Z,6.25
2023-01-23T02:44:00.812Z,5.43
2023-01-23T02:46:27.818Z,5.88
2023-01-23T02:48:54.793Z,5.63
2023-01-23T02:51:22.345Z,6.20
2023-01-23T02:53:49.496Z,5.90
2023-01-23T02:56:16.398Z,6.82
2023-01-23T02:59:09.794Z,5.32
2023-01-23T03:01:36.604Z,7.43
2023-01-23T03:04:06.324Z,8.68
2023-01-23T03:06:38.227Z,7.53
2023-01-23T03:09:10.686Z,6.90
2023-01-23T03:11:39.990Z,6.30
2023-01-23T03:14:15.226Z,6.57
2023-01-23T03:16:42.808Z,5.75
2023-01-23T03:19:10.864Z,5.75
2023-01-23T03:21:40.413Z,5.55
2023-01-23T03:24:12.590Z,8.40
2023-01-23T03:26:44.421Z,4.97
2023-01-23T03:29:44.316Z,6.43
2023-01-23T03:32:13.451Z,5.43
2023-01-23T03:34:41.436Z,4.72
2023-01-23T03:37:09.137Z,3.97
2023-01-23T03:39:54.857Z,5.47
2023-01-23T03:42:21.793Z,5.32
2023-01-23T03:44:49.522Z,6.20
2023-01-23T03:47:16.217Z,5.72
2023-01-23T03:49:43.007Z,6.00
2023-01-23T03:52:09.776Z,5.97
2023-01-23T03:54:36.943Z,6.55
2023-01-23T03:57:03.678Z,5.65
2023-01-23T03:59:30.341Z,5.65
2023-01-23T04:01:58.049Z,7.30
2023-01-23T04:04:24.712Z,8.35
2023-01-23T04:06:51.393Z,8.40
2023-01-23T04:09:18.344Z,8.93
2023-01-23T04:11:45.001Z,8.02
2023-01-23T04:14:11.654Z,11.63
2023-01-23T04:16:38.338Z,8.20
2023-01-23T04:19:05.047Z,8.43
2023-01-23T04:21:31.784Z,7.95
2023-01-23T04:23:58.458Z,7.18
2023-01-23T04:26:25.216Z,7.82
2023-01-23T04:28:51.845Z,5.72
2023-01-23T04:31:18.707Z,5.18
2023-01-23T04:33:45.543Z,6.40
2023-01-23T04:36:12.392Z,4.68
2023-01-23T04:38:39.478Z,5.53
2023-01-23T04:41:06.216Z,5.78
2023-01-23T04:43:32.885Z,5.68
2023-01-23T04:45:59.780Z,6.05
2023-01-23T04:48:26.516Z,9.93
2023-01-23T04:50:53.408Z,6.57
2023-01-23T04:53:20.329Z,9.15
2023-01-23T04:55:49.065Z,5.60
2023-01-23T04:58:16.877Z,6.70
2023-01-23T05:00:43.508Z,5.32
2023-01-23T05:03:10.192Z,8.60
2023-01-23T05:05:37.213Z,7.68
2023-01-23T05:08:04.431Z,6.85
2023-01-23T05:10:31.127Z,6.47
2023-01-23T05:12:57.767Z,7.45
2023-01-23T05:15:24.544Z,7.32
2023-01-23T05:17:51.249Z,5.82
2023-01-23T05:20:19.299Z,6.85
2023-01-23T05:22:57.021Z,5.68
2023-01-23T05:25:27.112Z,5.60
2023-01-23T05:27:54.150Z,4.88
2023-01-23T05:30:25.849Z,5.00
2023-01-23T05:32:52.621Z,5.07
2023-01-23T05:35:19.577Z,5.50
2023-01-23T05:37:53.180Z,5.32
2023-01-23T05:40:21.053Z,6.85
2023-01-23T05:42:48.729Z,5.25
2023-01-23T05:45:15.675Z,4.70
2023-01-23T05:47:42.927Z,7.40
2023-01-23T05:50:19.984Z,5.63
2023-01-23T05:52:46.940Z,5.25
2023-01-23T05:55:14.006Z,5.90
2023-01-23T05:57:41.158Z,5.53
2023-01-23T06:00:09.701Z,5.22
2023-01-23T06:02:36.379Z,5.47
2023-01-23T06:05:03.383Z,6.32
2023-01-23T06:07:30.366Z,7.18
2023-01-23T06:09:57.066Z,5.80
2023-01-23T06:12:24.150Z,5.95
2023-01-23T06:14:50.999Z,6.22
2023-01-23T06:17:17.780Z,5.93
2023-01-23T06:19:44.486Z,6.28
2023-01-23T06:22:11.279Z,7.70
2023-01-23T06:24:37.932Z,7.57
2023-01-23T06:27:08.184Z,7.63
2023-01-23T06:29:36.148Z,6.38
2023-01-23T06:32:03.821Z,6.32
2023-01-23T06:34:30.712Z,6.43
2023-01-23T06:36:57.459Z,7.22
2023-01-23T06:39:24.134Z,7.80
2023-01-23T06:41:50.785Z,7.72
2023-01-23T06:44:17.471Z,7.13
2023-01-23T06:46:44.166Z,7.57
2023-01-23T06:49:11.134Z,7.03
2023-01-23T06:51:37.862Z,12.20
2023-01-23T06:54:04.619Z,9.10
2023-01-23T06:56:31.403Z,8.10
2023-01-23T06:58:58.121Z,8.73
2023-01-23T07:01:26.391Z,8.60
2023-01-23T07:03:53.123Z,9.18
2023-01-23T07:06:19.820Z,7.32
2023-01-23T07:08:46.915Z,7.40
2023-01-23T07:11:13.618Z,7.30
2023-01-23T07:13:40.262Z,6.18
2023-01-23T07:16:07.374Z,7.60
2023-01-23T07:18:34.186Z,6.38
2023-01-23T07:21:00.983Z,7.40
2023-01-23T07:23:27.833Z,6.25
2023-01-23T07:26:03.544Z,7.47
2023-01-23T07:28:30.748Z,8.27
2023-01-23T07:30:59.043Z,5.80
2023-01-23T07:33:25.927Z,7.07
2023-01-23T07:35:52.636Z,7.40
2023-01-23T07:38:19.465Z,7.10
2023-01-23T07:40:46.178Z,7.07
2023-01-23T07:43:12.902Z,8.00
2023-01-23T07:45:39.566Z,7.82
2023-01-23T07:48:06.338Z,7.28
2023-01-23T07:50:33.041Z,9.77
2023-01-23T07:52:59.925Z,7.28
2023-01-23T07:55:26.669Z,6.43
2023-01-23T07:57:53.359Z,7.35
2023-01-23T08:00:22.872Z,7.03
2023-01-23T08:02:51.131Z,8.25
2023-01-23T08:05:17.845Z,8.60
2023-01-23T08:07:44.573Z,8.25
2023-01-23T08:10:11.761Z,6.20
2023-01-23T08:12:38.597Z,7.50
2023-01-23T08:15:05.792Z,7.40
2023-01-23T08:17:32.450Z,6.60
2023-01-23T08:19:59.086Z,6.95
2023-01-23T08:22:25.795Z,6.68
2023-01-23T08:24:52.419Z,6.53
2023-01-23T08:27:19.284Z,6.28
2023-01-23T08:29:45.980Z,6.97
2023-01-23T08:32:12.807Z,5.68
2023-01-23T08:34:39.552Z,6.15
2023-01-23T08:37:06.244Z,7.15
2023-01-23T08:39:32.952Z,5.03
2023-01-23T08:41:59.597Z,6.28
2023-01-23T08:44:26.455Z,7.47
2023-01-23T08:46:53.156Z,8.27
2023-01-23T08:49:20.394Z,7.43
2023-01-23T08:51:47.166Z,6.65
2023-01-23T08:54:13.951Z,6.20
2023-01-23T08:56:41.231Z,6.78
2023-01-23T08:59:07.989Z,8.13
2023-01-23T09:01:34.749Z,7.78
2023-01-23T09:04:01.472Z,6.75
2023-01-23T09:06:28.607Z,7.35
2023-01-23T09:08:55.459Z,7.32
2023-01-23T09:11:23.246Z,7.57
2023-01-23T09:13:52.968Z,6.95
2023-01-23T09:16:20.572Z,6.72
2023-01-23T09:18:47.371Z,6.65
2023-01-23T09:21:16.999Z,7.13
2023-01-23T09:23:43.915Z,6.70
2023-01-23T09:26:13.360Z,7.43
2023-01-23T09:28:42.592Z,6.43
2023-01-23T09:31:12.033Z,8.30
2023-01-23T09:33:39.022Z,7.10
2023-01-23T09:36:06.144Z,7.80
2023-01-23T09:38:34.076Z,5.50
2023-01-23T09:41:14.087Z,6.47
2023-01-23T09:43:47.855Z,8.07
2023-01-23T09:46:37.760Z,6.13
2023-01-23T09:49:17.944Z,4.93
2023-01-23T09:51:50.294Z,7.15
2023-01-23T09:54:22.901Z,6.47
2023-01-23T09:56:51.403Z,4.55
2023-01-23T09:59:50.205Z,6.22
2023-01-23T10:02:25.847Z,6.78
2023-01-23T10:04:54.036Z,5.75
2023-01-23T10:07:27.419Z,7.60
2023-01-23T10:09:58.991Z,6.40
2023-01-23T10:12:51.686Z,7.45
2023-01-23T10:15:45.672Z,7.25
2023-01-23T10:18:21.140Z,6.13
2023-01-23T10:21:13.072Z,7.55
2023-01-23T10:23:59.230Z,6.60
2023-01-23T10:26:39.757Z,6.95
2023-01-23T10:29:27.124Z,6.15
2023-01-23T10:32:02.901Z,6.03
2023-01-23T10:34:37.674Z,5.70
2023-01-23T10:37:31.389Z,6.57
2023-01-23T10:40:05.337Z,7.03
2023-01-23T10:42:32.160Z,6.43
2023-01-23T10:44:58.840Z,8.43
2023-01-23T10:47:42.848Z,6.90
2023-01-23T10:50:10.494Z,7.88
2023-01-23T10:52:45.931Z,6.97
2023-01-23T10:55:19.538Z,8.30
2023-01-23T10:57:49.359Z,8.07
2023-01-23T11:00:36.353Z,7.22
2023-01-23T11:03:38.489Z,7.43
2023-01-23T11:06:09.986Z,7.30
2023-01-23T11:08:49.891Z,7.25
2023-01-23T11:11:16.544Z,6.57
2023-01-23T11:13:45.817Z,8.52
2023-01-23T11:16:23.708Z,7.60
2023-01-23T11:19:04.917Z,7.80
2023-01-23T11:21:36.990Z,8.02
2023-01-23T11:24:39.114Z,7.40
2023-01-23T11:27:20.212Z,9.68
2023-01-23T11:29:55.586Z,7.93
2023-01-23T11:32:23.457Z,7.63
2023-01-23T11:34:53.320Z,7.13
2023-01-23T11:37:32.563Z,8.73
2023-01-23T11:40:19.992Z,9.35
2023-01-23T11:42:47.302Z,8.30
2023-01-23T11:45:54.655Z,9.43
2023-01-23T11:48:33.666Z,7.97
2023-01-23T11:51:10.912Z,8.05
2023-01-23T11:54:06.190Z,9.40
2023-01-23T11:56:54.681Z,9.05
2023-01-23T11:59:29.543Z,8.32
2023-01-23T12:02:17.744Z,8.77
2023-01-23T12:05:24.779Z,9.43
2023-01-23T12:08:07.770Z,8.40
2023-01-23T12:11:16.383Z,8.27
2023-01-23T12:14:03.333Z,9.25
2023-01-23T12:16:52.153Z,8.48
2023-01-23T12:19:52.311Z,10.27
2023-01-23T12:22:26.618Z,8.48
2023-01-23T12:25:10.736Z,9.23
2023-01-23T12:27:45.833Z,9.10
2023-01-23T12:30:43.745Z,7.53
2023-01-23T12:33:35.618Z,8.85
2023-01-23T12:36:59.434Z,8.73
2023-01-23T12:40:22.507Z,9.35
2023-01-23T12:43:40.227Z,9.30
2023-01-23T12:46:36.502Z,8.65
2023-01-23T12:49:13.806Z,9.13
2023-01-23T12:51:45.804Z,9.15
2023-01-23T12:56:46.174Z,9.35
2023-01-23T12:59:33.078Z,10.32
2023-01-23T13:02:19.443Z,7.75
2023-01-23T13:05:19.784Z,8.35
2023-01-23T13:07:58.858Z,8.18
2023-01-23T13:11:01.824Z,8.18
2023-01-23T13:13:28.824Z,8.70
2023-01-23T13:16:09.016Z,9.15
2023-01-23T13:18:56.749Z,8.80
2023-01-23T13:21:42.480Z,9.77
2023-01-23T13:24:41.402Z,8.30
2023-01-23T13:27:42.017Z,8.57
2023-01-23T13:30:32.792Z,9.25
2023-01-23T13:33:18.867Z,8.93
2023-01-23T13:35:49.315Z,10.70
2023-01-23T13:38:22.154Z,8.65
2023-01-23T13:41:04.528Z,10.18
2023-01-23T13:43:50.315Z,9.13
2023-01-23T14:21:57.945Z,9.80
2023-01-23T14:24:43.408Z,8.05
2023-01-23T14:27:28.193Z,11.95
2023-01-23T14:30:18.135Z,11.55
2023-01-23T14:32:48.411Z,9.95
2023-01-23T14:35:23.217Z,9.35
2023-01-23T14:37:50.939Z,11.55
2023-01-23T14:40:27.171Z,11.60
2023-01-23T14:43:05.068Z,10.63
2023-01-23T14:45:33.902Z,10.00
2023-01-23T14:48:07.842Z,11.43
2023-01-23T14:50:34.817Z,10.88
2023-01-23T14:53:04.736Z,10.60
2023-01-23T14:55:34.843Z,10.82
2023-01-23T14:58:04.508Z,11.48
2023-01-23T15:00:32.008Z,10.60
2023-01-23T15:02:58.839Z,10.60
2023-01-23T15:05:30.067Z,11.43
2023-01-23T15:08:07.257Z,15.20
2023-01-23T15:10:46.682Z,10.32
2023-01-23T15:13:25.566Z,9.80
2023-01-23T15:15:58.454Z,11.45
2023-01-23T15:18:27.892Z,10.88
2023-01-23T15:20:58.821Z,9.98
2023-01-23T15:23:31.613Z,11.10
2023-01-23T15:26:10.826Z,12.88
2023-01-23T15:28:57.450Z,11.27
2023-01-23T15:31:31.866Z,10.68
2023-01-23T15:34:17.426Z,10.90
2023-01-23T15:36:55.162Z,11.60
2023-01-23T15:39:50.197Z,10.38
2023-01-23T15:42:16.829Z,15.55
2023-01-23T15:44:43.956Z,11.70
2023-01-23T15:47:11.039Z,10.65
2023-01-23T15:49:39.822Z,11.98
2023-01-23T15:52:22.404Z,10.25
2023-01-23T15:54:56.743Z,11.20
2023-01-23T15:57:23.543Z,11.93
2023-01-23T15:59:50.337Z,12.02
2023-01-23T16:02:31.249Z,12.38
2023-01-23T16:07:34.297Z,11.68
2023-01-23T16:10:03.461Z,12.70
2023-01-23T16:12:30.953Z,13.07
2023-01-23T16:14:57.766Z,10.57
2023-01-23T16:17:24.579Z,12.07
2023-01-23T16:19:51.488Z,13.07
2023-01-23T16:22:26.176Z,14.07
2023-01-23T16:24:53.404Z,10.57
2023-01-23T16:27:27.133Z,12.05
2023-01-23T16:29:55.269Z,11.60
2023-01-23T16:32:22.121Z,13.73
2023-01-23T16:34:49.137Z,11.43
2023-01-23T16:37:18.005Z,12.75
2023-01-23T16:39:46.661Z,14.30
2023-01-23T16:42:22.871Z,14.00
2023-01-23T16:44:50.699Z,15.55
2023-01-23T16:47:17.432Z,13.00
2023-01-23T16:49:51.859Z,16.40
2023-01-23T16:52:20.548Z,13.75
2023-01-23T16:54:47.695Z,11.90
2023-01-23T16:57:21.064Z,13.50
2023-01-23T16:59:49.918Z,12.02
2023-01-23T17:02:29.452Z,12.38
2023-01-23T17:04:56.384Z,12.07
2023-01-23T17:07:23.181Z,13.35
2023-01-23T17:09:50.098Z,11.68
2023-01-23T17:12:28.180Z,11.38
2023-01-23T17:14:55.664Z,12.13
2023-01-23T17:17:36.022Z,13.43
2023-01-23T17:20:05.535Z,11.50
2023-01-23T17:22:38.277Z,12.32
2023-01-23T17:25:17.221Z,12.57
2023-01-23T17:27:46.277Z,10.38
2023-01-23T17:30:18.258Z,11.60
2023-01-23T17:32:50.159Z,11.05
2023-01-23T17:35:27.485Z,10.50
2023-01-23T17:37:57.724Z,11.50
2023-01-23T17:40:25.143Z,12.40
2023-01-23T17:42:53.708Z,13.45
2023-01-23T17:45:23.512Z,10.10
2023-01-23T17:47:53.061Z,10.82
2023-01-23T17:50:27.046Z,12.70
2023-01-23T17:52:54.596Z,11.88
2023-01-23T17:55:28.369Z,12.25
2023-01-23T17:57:55.123Z,11.05
2023-01-23T18:00:22.332Z,14.50
2023-01-23T18:02:56.178Z,12.27
2023-01-23T18:05:23.112Z,12.13
2023-01-23T18:07:53.990Z,12.02
2023-01-23T18:10:22.082Z,12.02
2023-01-23T18:13:13.662Z,11.60
2023-01-23T18:15:59.098Z,12.23
2023-01-23T18:18:33.209Z,11.77
2023-01-23T18:21:01.812Z,12.23
2023-01-23T18:23:31.994Z,11.30
2023-01-23T18:26:37.604Z,12.90
2023-01-23T18:29:19.356Z,12.65
2023-01-23T18:32:15.033Z,12.77
2023-01-23T18:34:51.973Z,11.32
2023-01-23T18:37:46.305Z,24.52
2023-01-23T18:40:25.146Z,16.63
2023-01-23T18:42:58.990Z,14.60
2023-01-23T18:45:27.684Z,15.65
2023-01-23T18:47:55.367Z,16.30
2023-01-23T18:50:22.898Z,18.05
2023-01-23T18:53:34.038Z,18.08
2023-01-23T18:56:37.519Z,15.80
2023-01-23T18:59:14.113Z,17.67
2023-01-23T19:02:07.170Z,13.60
2023-01-23T19:04:40.781Z,13.43
2023-01-23T19:07:16.114Z,14.40
2023-01-23T19:09:46.483Z,13.93
2023-01-23T19:12:25.446Z,12.27
2023-01-23T19:15:23.160Z,12.10
2023-01-23T19:18:13.394Z,12.55
2023-01-23T19:20:57.199Z,14.07
2023-01-23T19:23:53.469Z,19.83
2023-01-23T19:26:20.744Z,15.70
2023-01-23T19:28:48.125Z,14.70
2023-01-23T19:31:43.762Z,14.70
2023-01-23T19:34:12.097Z,14.20
2023-01-23T19:36:39.001Z,12.27
2023-01-23T19:39:06.793Z,13.80
2023-01-23T19:41:49.169Z,14.48
2023-01-23T19:44:18.404Z,11.55
2023-01-23T19:46:46.039Z,11.30
2023-01-23T19:49:14.124Z,13.70
2023-01-23T19:51:41.878Z,14.30
2023-01-23T19:54:12.563Z,10.68
2023-01-23T19:56:40.297Z,12.80
2023-01-23T19:59:07.865Z,11.10
2023-01-23T20:01:43.519Z,14.45
2023-01-23T20:04:19.223Z,12.80
2023-01-23T20:06:46.345Z,14.35
2023-01-23T20:09:17.590Z,11.38
2023-01-23T20:11:45.311Z,11.85
2023-01-23T20:14:12.415Z,11.85
2023-01-23T20:16:42.796Z,12.27
2023-01-23T20:19:14.095Z,12.75
2023-01-23T20:21:40.746Z,13.63
2023-01-23T20:24:08.425Z,10.15
2023-01-23T20:26:35.729Z,12.63
2023-01-23T20:29:03.888Z,12.63
2023-01-23T20:31:31.050Z,12.02
2023-01-23T20:33:57.767Z,11.75
2023-01-23T20:36:24.616Z,11.57
2023-01-23T20:38:51.342Z,12.82
2023-01-23T20:41:19.993Z,14.10
2023-01-23T20:43:47.341Z,12.85
2023-01-23T20:46:15.654Z,13.75
2023-01-23T20:48:44.282Z,16.25
2023-01-23T20:51:12.537Z,14.88
2023-01-23T20:53:40.015Z,15.27
2023-01-23T20:56:13.200Z,18.95
2023-01-23T20:59:01.063Z,15.55
2023-01-23T21:01:30.835Z,13.30
2023-01-23T21:03:57.603Z,13.95
2023-01-23T21:06:24.391Z,14.88
2023-01-23T21:08:51.979Z,14.73
2023-01-23T21:11:20.062Z,13.10
2023-01-23T21:13:53.463Z,14.52
2023-01-23T21:16:21.106Z,13.60
2023-01-23T21:18:47.942Z,12.82
2023-01-23T21:21:20.750Z,13.30
2023-01-23T21:23:49.340Z,11.05
2023-01-23T21:26:22.288Z,10.70
2023-01-23T21:28:51.944Z,12.55
2023-01-23T21:31:20.219Z,11.32
2023-01-23T21:33:47.165Z,10.77
2023-01-23T21:36:16.049Z,12.35
2023-01-23T21:38:43.293Z,11.63
2023-01-23T21:41:10.119Z,12.05
2023-01-23T21:43:36.770Z,11.30
2023-01-23T21:46:03.657Z,12.75
2023-01-23T21:48:32.200Z,11.20
2023-01-23T21:51:15.640Z,11.77
2023-01-23T21:53:44.477Z,10.00
2023-01-23T21:56:13.058Z,12.07
2023-01-23T21:58:39.799Z,10.57
2023-01-23T22:01:33.759Z,11.77
2023-01-23T22:04:12.763Z,10.25
2023-01-23T22:06:41.959Z,11.82
2023-01-23T22:09:10.314Z,9.80
2023-01-23T22:11:37.181Z,11.93
2023-01-23T22:14:04.486Z,10.38
2023-01-23T22:16:47.517Z,10.25
2023-01-23T22:19:17.292Z,11.15
2023-01-23T22:21:46.144Z,11.18
2023-01-23T22:24:13.013Z,11.20
2023-01-23T22:26:39.748Z,12.10
2023-01-23T22:29:07.204Z,10.05
2023-01-23T22:31:34.058Z,10.65
2023-01-23T22:34:00.753Z,9.13
2023-01-23T22:36:27.446Z,10.00
2023-01-23T22:38:54.920Z,10.25
2023-01-23T22:41:22.902Z,10.73
2023-01-23T22:43:54.420Z,12.10
2023-01-23T22:46:21.440Z,9.88
2023-01-23T22:48:48.235Z,9.77
2023-01-23T22:51:34.155Z,10.60
2023-01-23T22:54:00.834Z,10.43
2023-01-23T22:56:28.240Z,9.38
2023-01-23T22:58:56.397Z,9.52
2023-01-23T23:01:24.293Z,9.70
2023-01-23T23:03:51.584Z,9.30
2023-01-23T23:06:19.484Z,9.30
2023-01-23T23:08:47.908Z,8.18
2023-01-23T23:11:18.425Z,9.98
2023-01-23T23:13:45.854Z,8.32
2023-01-23T23:16:15.669Z,11.00
2023-01-23T23:18:42.361Z,10.38
2023-01-23T23:21:12.969Z,10.23
2023-01-23T23:23:40.139Z,8.85
2023-01-23T23:26:08.813Z,8.27
2023-01-23T23:28:36.238Z,9.82
2023-01-23T23:31:03.578Z,8.32
2023-01-23T23:33:30.653Z,8.70
2023-01-23T23:35:57.372Z,8.20
2023-01-23T23:38:24.027Z,8.18
2023-01-23T23:40:59.449Z,7.53
2023-01-23T23:43:26.293Z,8.88
2023-01-23T23:45:57.953Z,7.65
2023-01-23T23:48:25.486Z,7.45
2023-01-23T23:50:53.327Z,9.05
2023-01-23T23:53:21.386Z,7.80
2023-01-23T23:55:48.468Z,7.70
2023-01-23T23:58:15.864Z,8.85
